Time;durP1;ratioP1;P1;durP2;ratioP2;P2;SDS_P1;SDS_P2;PMS_P1;PMS_P2;Temp;Humidity;BMP_temperature;BMP_pressure;BME280_temperature;BME280_humidity;BME280_pressure;Samples;Min_cycle;Max_cycle;Signal;HPM_P1;HPM_P2
2023/10/28 00:00:40;;;;;;;16.00;12.95;;;;;;;-146.25;100.00;52560.81;2105195;28;34522;-73
2023/10/28 00:01:41;;;;;;;15.38;12.50;;;;;;;-146.25;100.00;52506.06;2104985;28;36550;-72
2023/10/28 00:02:47;;;;;;;16.38;12.80;;;;;;;-146.25;100.00;52554.75;2105301;28;34018;-73
2023/10/28 00:03:49;;;;;;;17.48;12.57;;;;;;;-146.25;100.00;52534.47;2105468;28;33298;-72
2023/10/28 00:04:51;;;;;;;19.80;13.55;;;;;;;-146.25;100.00;52562.84;2103793;28;39787;-73
2023/10/28 00:05:53;;;;;;;15.95;12.82;;;;;;;-146.25;100.00;52534.47;2105008;28;37447;-72
2023/10/28 00:06:55;;;;;;;18.15;13.55;;;;;;;-146.25;100.00;52568.94;2104555;28;36612;-74
2023/10/28 00:07:57;;;;;;;18.73;13.40;;;;;;;-146.25;100.00;52554.75;2104805;28;37253;-74
2023/10/28 00:08:59;;;;;;;18.23;13.05;;;;;;;-146.25;100.00;52556.75;2105195;28;34726;-72
2023/10/28 00:10:07;;;;;;;17.13;13.15;;;;;;;-146.25;100.00;52542.56;2104923;28;33201;-71
2023/10/28 00:11:10;;;;;;;18.40;13.55;;;;;;;-146.25;100.00;52554.75;2105295;28;33891;-73
2023/10/28 00:12:14;;;;;;;17.88;12.57;;;;;;;-146.25;100.00;52540.53;2103996;28;39098;-71
2023/10/28 00:13:16;;;;;;;19.17;13.68;;;;;;;-146.25;100.00;52546.63;2104006;28;35819;-73
2023/10/28 00:14:19;;;;;;;17.48;13.20;;;;;;;-146.25;100.00;52542.56;2104184;28;33627;-74
2023/10/28 00:15:21;;;;;;;16.98;12.43;;;;;;;-146.25;100.00;52552.72;2104754;28;35041;-74
2023/10/28 00:16:23;;;;;;;17.38;12.73;;;;;;;-146.25;100.00;52514.19;2106092;28;20033;-73
2023/10/28 00:17:27;;;;;;;19.00;13.90;;;;;;;-146.25;100.00;52540.53;2105190;28;20990;-73
2023/10/28 00:18:31;;;;;;;19.08;13.50;;;;;;;-146.25;100.00;52546.63;2105478;28;33846;-71
2023/10/28 00:19:32;;;;;;;19.98;13.07;;;;;;;-146.25;100.00;52568.94;2104241;28;34315;-72
2023/10/28 00:20:36;;;;;;;20.27;13.50;;;;;;;-146.25;100.00;52564.88;2105093;28;36492;-72
2023/10/28 00:21:37;;;;;;;20.13;13.43;;;;;;;-146.25;100.00;52548.66;2103980;28;37020;-73
2023/10/28 00:22:39;;;;;;;16.80;12.70;;;;;;;-146.25;100.00;52550.69;2105255;28;35680;-73
2023/10/28 00:23:42;;;;;;;15.77;13.07;;;;;;;-146.25;100.00;52560.81;2104872;28;33368;-71
2023/10/28 00:24:44;;;;;;;15.73;13.05;;;;;;;-146.25;100.00;52573.00;2105922;28;20054;-73
2023/10/28 00:25:50;;;;;;;18.23;13.00;;;;;;;-146.25;100.00;52550.69;2105322;28;20041;-72
2023/10/28 00:26:54;;;;;;;20.48;13.73;;;;;;;-146.25;100.00;52577.03;2104014;28;38046;-73
2023/10/28 00:27:57;;;;;;;16.48;13.00;;;;;;;-146.25;100.00;52530.41;2096814;28;25830;-74
2023/10/28 00:28:59;;;;;;;18.77;14.45;;;;;;;-146.25;100.00;52579.06;2104875;28;31289;-74
2023/10/28 00:30:01;;;;;;;19.33;12.88;;;;;;;-146.25;100.00;52556.75;2105182;28;20965;-74
2023/10/28 00:31:06;;;;;;;19.48;13.48;;;;;;;-146.25;100.00;52544.59;2106031;28;21179;-74
2023/10/28 00:32:08;;;;;;;18.40;13.43;;;;;;;-146.25;100.00;52542.56;2095671;28;30582;-74
2023/10/28 00:33:10;;;;;;;20.13;14.63;;;;;;;-146.25;100.00;52540.53;2096828;28;20037;-72
2023/10/28 00:34:12;;;;;;;18.52;13.55;;;;;;;-146.25;100.00;52522.28;2104106;28;20155;-71
2023/10/28 00:35:15;;;;;;;16.73;13.05;;;;;;;-146.25;100.00;52562.84;2104948;28;25442;-73
2023/10/28 00:36:17;;;;;;;18.08;13.10;;;;;;;-146.25;100.00;52544.59;2104521;28;29206;-71
2023/10/28 00:37:18;;;;;;;20.15;13.88;;;;;;;-146.25;100.00;52558.78;2104416;28;29772;-72
2023/10/28 00:38:22;;;;;;;17.35;13.32;;;;;;;-146.25;100.00;52542.56;2104376;28;29049;-72
2023/10/28 00:39:24;;;;;;;19.73;13.60;;;;;;;-146.25;100.00;52542.56;2105802;28;26469;-72
2023/10/28 00:40:29;;;;;;;20.73;13.55;;;;;;;-146.25;100.00;52581.09;2104360;28;20051;-72
2023/10/28 00:41:32;;;;;;;20.85;13.02;;;;;;;-146.25;100.00;52510.13;2104865;28;22133;-72
2023/10/28 00:42:35;;;;;;;18.60;13.95;;;;;;;-146.25;100.00;52558.78;2105475;28;20876;-72
2023/10/28 00:43:37;;;;;;;16.50;13.05;;;;;;;-146.25;100.00;52542.56;2105066;28;21621;-72
2023/10/28 00:44:40;;;;;;;18.38;13.60;;;;;;;-146.25;100.00;52568.94;2112558;28;29398;-71
2023/10/28 00:45:42;;;;;;;17.38;13.25;;;;;;;-146.25;100.00;52558.78;2104517;28;25688;-72
2023/10/28 00:46:44;;;;;;;18.63;13.30;;;;;;;-146.25;100.00;52570.97;2104351;28;26656;-71
2023/10/28 00:47:49;;;;;;;17.73;14.00;;;;;;;-146.25;100.00;52534.47;2113013;28;20044;-73
2023/10/28 00:48:53;;;;;;;18.83;13.20;;;;;;;-146.25;100.00;52573.00;2104041;28;28549;-72
2023/10/28 00:49:54;;;;;;;20.77;13.77;;;;;;;-146.25;100.00;52530.41;2104352;28;31473;-73
2023/10/28 00:50:58;;;;;;;20.73;13.73;;;;;;;-146.25;100.00;52546.63;2104472;28;20041;-72
2023/10/28 00:52:02;;;;;;;20.80;13.77;;;;;;;-146.25;100.00;52573.00;2104227;28;31277;-72
2023/10/28 00:53:04;;;;;;;21.75;13.77;;;;;;;-146.25;100.00;52534.47;2096393;28;30126;-72
2023/10/28 00:54:06;;;;;;;24.15;13.93;;;;;;;-146.25;100.00;52566.91;2104474;28;27984;-71
2023/10/28 00:55:10;;;;;;;19.85;13.43;;;;;;;-146.25;100.00;52550.69;2104396;28;27464;-70
2023/10/28 00:56:12;;;;;;;19.98;13.80;;;;;;;-146.25;100.00;52579.06;2104482;28;20040;-72
2023/10/28 00:57:17;;;;;;;21.83;13.63;;;;;;;-146.25;100.00;52562.84;2104470;28;26097;-72
2023/10/28 00:58:22;;;;;;;19.13;13.57;;;;;;;-146.25;100.00;52546.63;2105210;28;28286;-72
2023/10/28 00:59:24;;;;;;;19.65;12.82;;;;;;;-146.25;100.00;52595.28;2104742;28;27822;-71
2023/10/28 01:00:29;;;;;;;19.92;13.65;;;;;;;-146.25;100.00;52530.41;2105083;28;30284;-72
2023/10/28 01:01:31;;;;;;;21.50;13.60;;;;;;;-146.25;100.00;52568.94;2105015;28;25410;-72
2023/10/28 01:02:38;;;;;;;20.38;13.60;;;;;;;-146.25;100.00;52562.84;2105235;28;20175;-71
2023/10/28 01:03:42;;;;;;;19.95;13.70;;;;;;;-146.25;100.00;52587.19;2112589;28;24919;-71
2023/10/28 01:04:45;;;;;;;18.65;13.13;;;;;;;-146.25;100.00;52534.47;2112335;28;34922;-71
2023/10/28 01:05:46;;;;;;;25.08;14.88;;;;;;;-146.25;100.00;52546.63;2104806;28;20202;-70
2023/10/28 01:06:48;;;;;;;19.38;12.80;;;;;;;-146.25;100.00;52534.47;2104133;28;35550;-71
2023/10/28 01:07:50;;;;;;;23.45;13.57;;;;;;;-146.25;100.00;52579.06;2104578;28;29459;-72
2023/10/28 01:08:52;;;;;;;22.88;14.20;;;;;;;-146.25;100.00;52534.47;2104766;28;25499;-72
2023/10/28 01:09:54;;;;;;;18.52;13.05;;;;;;;-146.25;100.00;52548.66;2105077;28;23194;-73
2023/10/28 01:11:01;;;;;;;19.83;13.68;;;;;;;-146.25;100.00;52554.75;2105220;28;21641;-73
2023/10/28 01:12:06;;;;;;;19.55;14.32;;;;;;;-146.25;100.00;52566.91;2104113;28;34610;-74
2023/10/28 01:13:08;;;;;;;20.05;13.65;;;;;;;-146.25;100.00;52542.56;2105089;28;20040;-72
2023/10/28 01:14:12;;;;;;;20.45;13.55;;;;;;;-146.25;100.00;52518.25;2104956;28;27402;-72
2023/10/28 01:15:14;;;;;;;20.83;14.10;;;;;;;-146.25;100.00;52514.19;2104353;28;31476;-73
2023/10/28 01:16:15;;;;;;;22.00;14.32;;;;;;;-146.25;100.00;52554.75;2104088;28;29461;-73
2023/10/28 01:17:25;;;;;;;20.23;13.18;;;;;;;-146.25;100.00;52587.19;2103803;28;34104;-72
2023/10/28 01:18:29;;;;;;;21.30;13.57;;;;;;;-146.25;100.00;52540.53;2103958;28;35177;-71
2023/10/28 01:19:31;;;;;;;22.02;13.88;;;;;;;-146.25;100.00;52577.03;2104613;28;28022;-73
2023/10/28 01:20:33;;;;;;;21.70;13.65;;;;;;;-146.25;100.00;52542.56;2103988;28;20252;-73
2023/10/28 01:21:35;;;;;;;21.38;13.43;;;;;;;-146.25;100.00;52570.97;2095978;28;23567;-72
2023/10/28 01:22:37;;;;;;;22.33;14.15;;;;;;;-146.25;100.00;52526.34;2103498;28;34316;-72
2023/10/28 01:23:41;;;;;;;23.17;13.57;;;;;;;-146.25;100.00;52526.34;2105611;28;26810;-72
2023/10/28 01:24:43;;;;;;;23.30;14.30;;;;;;;-146.25;100.00;52534.47;2104660;28;30892;-73
2023/10/28 01:25:47;;;;;;;22.30;14.13;;;;;;;-146.25;100.00;52587.19;2104908;28;20150;-72
2023/10/28 01:26:49;;;;;;;18.63;12.57;;;;;;;-146.25;100.00;52538.53;2104800;28;30181;-71
2023/10/28 01:27:51;;;;;;;25.30;13.85;;;;;;;-146.25;100.00;52556.75;2104659;28;29409;-72
2023/10/28 01:28:54;;;;;;;22.77;14.63;;;;;;;-146.25;100.00;52564.88;2104396;28;28190;-72
2023/10/28 01:29:56;;;;;;;21.42;13.98;;;;;;;-146.25;100.00;52550.69;2104397;28;32921;-71
2023/10/28 01:31:00;;;;;;;23.52;14.13;;;;;;;-146.25;100.00;52564.88;2104368;28;30587;-72
2023/10/28 01:32:03;;;;;;;19.58;13.60;;;;;;;-146.25;100.00;52603.41;2104855;28;26673;-71
2023/10/28 01:33:05;;;;;;;24.23;13.10;;;;;;;-146.25;100.00;52585.16;2104267;28;20052;-71
2023/10/28 01:34:07;;;;;;;21.50;13.57;;;;;;;-146.25;100.00;52560.81;2095466;28;33293;-72
2023/10/28 01:35:09;;;;;;;22.90;14.40;;;;;;;-146.25;100.00;52552.72;2103894;28;34008;-71
2023/10/28 01:36:11;;;;;;;22.65;13.23;;;;;;;-146.25;100.00;52601.38;2103920;28;29946;-71
2023/10/28 01:37:16;;;;;;;24.02;14.55;;;;;;;-146.25;100.00;52556.75;2103598;28;27584;-72
2023/10/28 01:38:17;;;;;;;23.15;13.80;;;;;;;-146.25;100.00;52522.28;2104324;28;30556;-71
2023/10/28 01:39:21;;;;;;;21.30;13.35;;;;;;;-146.25;100.00;52554.75;2104970;28;23781;-72
2023/10/28 01:40:24;;;;;;;22.80;13.43;;;;;;;-146.25;100.00;52534.47;2104512;28;30804;-73
2023/10/28 01:41:26;;;;;;;22.75;12.93;;;;;;;-146.25;100.00;52534.47;2104457;28;31543;-72
2023/10/28 01:42:28;;;;;;;22.25;13.68;;;;;;;-146.25;100.00;52568.94;2103738;28;33911;-71
2023/10/28 01:43:30;;;;;;;21.98;14.02;;;;;;;-146.25;100.00;52568.94;2103842;28;33826;-71
2023/10/28 01:44:34;;;;;;;21.73;13.63;;;;;;;-146.25;100.00;52540.53;2104577;28;31766;-72
2023/10/28 01:45:38;;;;;;;19.17;12.95;;;;;;;-146.25;100.00;52564.88;2103360;28;31970;-71
2023/10/28 01:46:43;;;;;;;21.27;13.75;;;;;;;-146.25;100.00;52568.94;2097154;28;20519;-72
2023/10/28 01:47:44;;;;;;;21.20;13.88;;;;;;;-146.25;100.00;52546.63;2096640;28;27180;-72
2023/10/28 01:48:49;;;;;;;24.83;14.20;;;;;;;-146.25;100.00;52548.66;2104107;28;27994;-72
2023/10/28 01:49:50;;;;;;;24.42;14.07;;;;;;;-146.25;100.00;52534.47;2103995;28;29859;-72
2023/10/28 01:50:52;;;;;;;25.95;13.75;;;;;;;-146.25;100.00;52538.53;2104532;28;28676;-71
2023/10/28 01:51:54;;;;;;;20.58;13.45;;;;;;;-146.25;100.00;52544.59;2103642;28;24941;-72
2023/10/28 01:52:57;;;;;;;25.23;14.65;;;;;;;-146.25;100.00;52587.19;2104378;28;20043;-72
2023/10/28 01:53:59;;;;;;;23.75;14.57;;;;;;;-146.25;100.00;52568.94;2104184;28;31569;-73
2023/10/28 01:55:01;;;;;;;19.98;13.55;;;;;;;-146.25;100.00;52575.00;2104016;28;31253;-73
2023/10/28 01:56:03;;;;;;;25.45;14.70;;;;;;;-146.25;100.00;52560.81;2104064;28;21059;-74
2023/10/28 01:57:09;;;;;;;24.10;14.48;;;;;;;-146.25;100.00;52550.69;2112848;28;20051;-71
2023/10/28 01:58:11;;;;;;;22.58;14.15;;;;;;;-146.25;100.00;52579.06;2104042;28;20044;-72
2023/10/28 01:59:13;;;;;;;24.52;13.93;;;;;;;-146.25;100.00;52566.91;2104161;28;20032;-72
2023/10/28 02:00:16;;;;;;;25.83;13.93;;;;;;;-146.25;100.00;52579.06;2111756;28;20048;-72
2023/10/28 02:01:18;;;;;;;23.83;14.23;;;;;;;-146.25;100.00;52558.78;2103724;28;27741;-72
2023/10/28 02:02:20;;;;;;;21.83;13.80;;;;;;;-146.25;100.00;52550.69;2095391;28;25780;-72
2023/10/28 02:03:22;;;;;;;27.20;14.10;;;;;;;-146.25;100.00;52575.00;2096045;28;20041;-72
2023/10/28 02:04:26;;;;;;;23.10;14.05;;;;;;;-146.25;100.00;52566.91;2096249;28;20049;-71
2023/10/28 02:05:27;;;;;;;26.10;14.77;;;;;;;-146.25;100.00;52534.47;2096023;28;28933;-72
2023/10/28 02:06:29;;;;;;;20.83;13.43;;;;;;;-146.25;100.00;52566.91;2100116;28;26278;-72
2023/10/28 02:07:34;;;;;;;23.33;14.05;;;;;;;-146.25;100.00;52599.34;2104212;28;20155;-72
2023/10/28 02:08:38;;;;;;;21.10;13.13;;;;;;;-146.25;100.00;52530.41;2104328;28;20048;-72
2023/10/28 02:09:40;;;;;;;23.60;13.77;;;;;;;-146.25;100.00;52593.25;2104142;28;27550;-71
2023/10/28 02:10:42;;;;;;;23.67;13.75;;;;;;;-146.25;100.00;52566.91;2104445;28;20048;-72
2023/10/28 02:11:44;;;;;;;22.55;13.30;;;;;;;-146.25;100.00;52552.72;2104528;28;20440;-71
2023/10/28 02:12:45;;;;;;;22.35;13.68;;;;;;;-146.25;100.00;52546.63;2095115;28;28766;-72
2023/10/28 02:13:48;;;;;;;23.35;13.32;;;;;;;-146.25;100.00;52514.19;2095713;28;20160;-72
2023/10/28 02:14:53;;;;;;;21.95;13.50;;;;;;;-146.25;100.00;52562.84;2104095;28;21006;-72
2023/10/28 02:15:55;;;;;;;23.05;13.73;;;;;;;-146.25;100.00;52520.28;2112766;28;20048;-71
2023/10/28 02:16:58;;;;;;;22.90;13.07;;;;;;;-146.25;100.00;52566.91;2104042;28;30310;-71
2023/10/28 02:18:00;;;;;;;23.80;13.00;;;;;;;-146.25;100.00;52536.50;2112541;28;26165;-72
2023/10/28 02:19:02;;;;;;;22.98;13.20;;;;;;;-146.25;100.00;52546.63;2112158;28;25217;-71
2023/10/28 02:20:06;;;;;;;22.70;13.77;;;;;;;-146.25;100.00;52566.91;2112761;28;20881;-74
2023/10/28 02:21:08;;;;;;;20.52;11.88;;;;;;;-146.25;100.00;52581.09;2103280;28;24502;-71
2023/10/28 02:22:10;;;;;;;24.17;13.63;;;;;;;-146.25;100.00;52564.88;2104321;28;20895;-72
2023/10/28 02:23:15;;;;;;;25.73;12.48;;;;;;;-146.25;100.00;52542.56;2105042;28;20155;-72
2023/10/28 02:24:19;;;;;;;26.73;13.45;;;;;;;-146.25;100.00;52546.63;2104373;28;29264;-72
2023/10/28 02:25:22;;;;;;;22.10;12.75;;;;;;;-146.25;100.00;52518.25;2104781;28;20957;-72
2023/10/28 02:26:24;;;;;;;23.33;13.43;;;;;;;-146.25;100.00;52581.09;2103719;28;37124;-73
2023/10/28 02:27:26;;;;;;;24.10;13.55;;;;;;;-146.25;100.00;52568.94;2103943;28;26735;-72
2023/10/28 02:28:29;;;;;;;22.90;13.55;;;;;;;-146.25;100.00;52546.63;2105667;28;31751;-72
2023/10/28 02:29:30;;;;;;;25.10;14.10;;;;;;;-146.25;100.00;52570.97;2105082;28;31511;-72
2023/10/28 02:30:37;;;;;;;23.27;13.45;;;;;;;-146.25;100.00;52516.22;2105801;28;29374;-72
2023/10/28 02:31:39;;;;;;;24.42;12.82;;;;;;;-146.25;100.00;52532.44;2096622;28;20808;-73
2023/10/28 02:32:40;;;;;;;25.00;13.35;;;;;;;-146.25;100.00;52546.63;2098329;28;20041;-73
2023/10/28 02:33:42;;;;;;;25.50;14.02;;;;;;;-146.25;100.00;52589.22;2105796;28;24332;-73
2023/10/28 02:34:45;;;;;;;18.77;11.82;;;;;;;-146.25;100.00;52536.50;2106349;28;20075;-72
2023/10/28 02:35:47;;;;;;;23.70;13.02;;;;;;;-146.25;100.00;52583.13;2113176;28;32779;-72
2023/10/28 02:36:49;;;;;;;21.88;12.45;;;;;;;-146.25;100.00;52526.34;2113968;28;29669;-73
2023/10/28 02:37:51;;;;;;;23.80;12.88;;;;;;;-146.25;100.00;52542.56;2105589;28;29065;-72
2023/10/28 02:38:58;;;;;;;21.77;12.65;;;;;;;-146.25;100.00;52575.00;2106608;28;21024;-71
2023/10/28 02:40:03;;;;;;;20.98;12.68;;;;;;;-146.25;100.00;52566.91;2106240;28;20159;-72
2023/10/28 02:41:06;;;;;;;23.60;13.02;;;;;;;-146.25;100.00;52573.00;2106067;28;27989;-72
2023/10/28 02:42:08;;;;;;;21.58;12.27;;;;;;;-146.25;100.00;52554.75;2105890;28;20763;-73
2023/10/28 02:43:10;;;;;;;19.38;12.05;;;;;;;-146.25;100.00;52534.47;2106457;28;20040;-72
2023/10/28 02:44:12;;;;;;;24.70;12.38;;;;;;;-146.25;100.00;52526.34;2105586;28;22716;-72
2023/10/28 02:45:14;;;;;;;20.33;12.63;;;;;;;-146.25;100.00;52542.56;2106200;28;20041;-72
2023/10/28 02:46:25;;;;;;;21.67;12.65;;;;;;;-146.25;100.00;52587.19;2105731;28;20045;-72
2023/10/28 02:47:30;;;;;;;;;;;;;;;-146.25;100.00;52577.03;2105773;28;32107;-73
2023/10/28 02:48:33;;;;;;;23.27;12.45;;;;;;;-146.25;100.00;52558.78;2105522;28;30377;-72
2023/10/28 02:49:37;;;;;;;24.02;12.90;;;;;;;-146.25;100.00;52562.84;2106403;28;20096;-73
2023/10/28 02:50:39;;;;;;;20.48;12.27;;;;;;;-146.25;100.00;52558.78;2105503;28;28111;-72
2023/10/28 02:51:41;;;;;;;21.35;11.95;;;;;;;-146.25;100.00;52534.47;2105594;28;20716;-72
2023/10/28 02:52:43;;;;;;;22.05;12.25;;;;;;;-146.25;100.00;52581.09;2096706;28;20992;-74
2023/10/28 02:53:45;;;;;;;21.23;12.32;;;;;;;-146.25;100.00;52593.25;2105825;28;23143;-73
2023/10/28 02:54:47;;;;;;;26.98;12.95;;;;;;;-146.25;100.00;52570.97;2105638;28;22990;-71
2023/10/28 02:55:49;;;;;;;23.98;12.80;;;;;;;-146.25;100.00;52560.81;2105881;28;26935;-71
2023/10/28 02:56:50;;;;;;;23.55;12.63;;;;;;;-146.25;100.00;52546.63;2106067;28;20077;-72
2023/10/28 02:57:53;;;;;;;22.00;12.63;;;;;;;-146.25;100.00;52587.19;2105918;28;20041;-72
2023/10/28 02:58:57;;;;;;;20.65;11.95;;;;;;;-146.25;100.00;52570.97;2105966;28;20084;-73
2023/10/28 02:59:59;;;;;;;23.95;13.63;;;;;;;-146.25;100.00;52579.06;2105574;28;28084;-73
2023/10/28 03:01:09;;;;;;;20.65;12.27;;;;;;;-146.25;100.00;52554.75;2105445;28;28138;-72
2023/10/28 03:02:11;;;;;;;22.95;11.85;;;;;;;-146.25;100.00;52554.75;2105593;28;25885;-73
2023/10/28 03:03:13;;;;;;;22.85;12.75;;;;;;;-146.25;100.00;52522.28;2105123;28;33126;-73
2023/10/28 03:04:16;;;;;;;23.58;12.30;;;;;;;-146.25;100.00;52585.16;2105602;28;38719;-71
2023/10/28 03:05:19;;;;;;;19.48;11.88;;;;;;;-146.25;100.00;52536.50;2105819;28;20083;-72
2023/10/28 03:06:23;;;;;;;21.45;12.43;;;;;;;-146.25;100.00;52595.28;2105671;28;31204;-73
2023/10/28 03:07:25;;;;;;;23.83;12.02;;;;;;;-146.25;100.00;52522.28;2106123;28;27667;-72
2023/10/28 03:08:26;;;;;;;22.90;12.50;;;;;;;-146.25;100.00;52558.78;2105564;28;29963;-74
2023/10/28 03:09:31;;;;;;;24.65;12.80;;;;;;;-146.25;100.00;52552.72;2106119;28;20040;-72
2023/10/28 03:10:32;;;;;;;22.52;11.40;;;;;;;-146.25;100.00;52552.72;2105536;28;26077;-71
2023/10/28 03:11:34;;;;;;;22.17;12.15;;;;;;;-146.25;100.00;52548.66;2106008;28;20862;-72
2023/10/28 03:12:36;;;;;;;23.48;12.80;;;;;;;-146.25;100.00;52556.75;2105222;28;20889;-72
2023/10/28 03:13:40;;;;;;;22.83;12.40;;;;;;;-146.25;100.00;52558.78;2096317;28;24934;-72
2023/10/28 03:14:42;;;;;;;22.77;12.95;;;;;;;-146.25;100.00;52587.19;2105000;28;26620;-74
2023/10/28 03:15:46;;;;;;;20.90;12.35;;;;;;;-146.25;100.00;52530.41;2105378;28;30784;-72
2023/10/28 03:16:48;;;;;;;22.48;12.98;;;;;;;-146.25;100.00;52550.69;2104810;28;25253;-72
2023/10/28 03:17:50;;;;;;;22.40;12.13;;;;;;;-146.25;100.00;52530.41;2113794;28;20918;-71
2023/10/28 03:18:52;;;;;;;24.98;13.15;;;;;;;-146.25;100.00;52579.06;2113032;28;32590;-72
2023/10/28 03:19:54;;;;;;;23.63;12.02;;;;;;;-146.25;100.00;52575.00;2105928;28;21727;-72
2023/10/28 03:20:56;;;;;;;22.38;12.10;;;;;;;-146.25;100.00;52583.13;2106006;28;20963;-73
2023/10/28 03:21:58;;;;;;;27.33;12.73;;;;;;;-146.25;100.00;52554.75;2105294;28;26796;-72
2023/10/28 03:23:02;;;;;;;22.70;12.45;;;;;;;-146.25;100.00;52583.13;2113565;28;20051;-71
2023/10/28 03:24:09;;;;;;;23.77;13.00;;;;;;;-146.25;100.00;52556.75;2105488;28;20043;-72
2023/10/28 03:25:13;;;;;;;25.33;12.60;;;;;;;-146.25;100.00;52536.50;2097008;28;35054;-74
2023/10/28 03:26:15;;;;;;;24.88;11.80;;;;;;;-146.25;100.00;52552.72;2104854;28;33434;-72
2023/10/28 03:27:17;;;;;;;23.50;12.43;;;;;;;-146.25;100.00;52536.50;2105193;28;29753;-72
2023/10/28 03:28:19;;;;;;;23.42;12.40;;;;;;;-146.25;100.00;52560.81;2105885;28;25688;-72
2023/10/28 03:29:21;;;;;;;26.63;12.95;;;;;;;-146.25;100.00;52566.91;2113146;28;30350;-72
2023/10/28 03:30:23;;;;;;;24.90;13.38;;;;;;;-146.25;100.00;52558.78;2113082;28;35011;-72
2023/10/28 03:31:26;;;;;;;21.38;11.90;;;;;;;-146.25;100.00;52558.78;2105648;28;31885;-72
2023/10/28 03:32:28;;;;;;;29.05;13.35;;;;;;;-146.25;100.00;52579.06;2105014;28;32621;-73
2023/10/28 03:33:30;;;;;;;26.35;12.75;;;;;;;-146.25;100.00;52542.56;2105241;28;38309;-73
2023/10/28 03:34:32;;;;;;;26.42;12.82;;;;;;;-146.25;100.00;52556.75;2104910;28;20961;-73
2023/10/28 03:35:34;;;;;;;22.38;12.02;;;;;;;-146.25;100.00;52562.84;2104717;28;33499;-72
2023/10/28 03:36:40;;;;;;;23.90;12.50;;;;;;;-146.25;100.00;52564.88;2105733;28;20114;-72
2023/10/28 03:37:44;;;;;;;26.33;12.65;;;;;;;-146.25;100.00;52544.59;2105659;28;22490;-72
2023/10/28 03:38:45;;;;;;;23.08;12.25;;;;;;;-146.25;100.00;52530.41;2105183;28;30826;-73
2023/10/28 03:39:47;;;;;;;29.05;13.40;;;;;;;-146.25;100.00;52587.19;2103426;28;32119;-73
2023/10/28 03:40:49;;;;;;;28.27;13.32;;;;;;;-146.25;100.00;52552.72;2105381;28;25823;-72
2023/10/28 03:41:54;;;;;;;23.38;12.93;;;;;;;-146.25;100.00;52577.03;2105294;28;20118;-72
2023/10/28 03:42:55;;;;;;;24.15;11.90;;;;;;;-146.25;100.00;52573.00;2105504;28;33528;-72
2023/10/28 03:43:57;;;;;;;26.33;13.63;;;;;;;-146.25;100.00;52548.66;2105046;28;36069;-73
2023/10/28 03:44:59;;;;;;;24.67;13.05;;;;;;;-146.25;100.00;52589.22;2104971;28;35448;-72
2023/10/28 03:46:03;;;;;;;26.40;12.95;;;;;;;-146.25;100.00;52575.00;2104724;28;34799;-72
2023/10/28 03:47:05;;;;;;;23.33;12.30;;;;;;;-146.25;100.00;52558.78;2104724;28;36551;-71
2023/10/28 03:48:07;;;;;;;26.77;13.00;;;;;;;-146.25;100.00;52566.91;2105010;28;35370;-73
2023/10/28 03:49:09;;;;;;;23.30;13.07;;;;;;;-146.25;100.00;52556.75;2105012;28;32440;-72
2023/10/28 03:50:12;;;;;;;24.92;13.63;;;;;;;-146.25;100.00;52538.53;2105062;28;39460;-72
2023/10/28 03:51:14;;;;;;;27.13;12.82;;;;;;;-146.25;100.00;52560.81;2106031;28;20044;-72
2023/10/28 03:52:16;;;;;;;27.60;13.27;;;;;;;-146.25;100.00;52564.88;2104731;28;36525;-72
2023/10/28 03:53:18;;;;;;;27.38;13.27;;;;;;;-146.25;100.00;52587.19;2105094;28;34538;-72
2023/10/28 03:54:20;;;;;;;28.15;13.20;;;;;;;-146.25;100.00;52542.56;2105877;28;20047;-72
2023/10/28 03:55:23;;;;;;;26.58;12.85;;;;;;;-146.25;100.00;52560.81;2105071;28;39140;-73
2023/10/28 03:56:25;;;;;;;27.67;13.02;;;;;;;-146.25;100.00;52554.75;2105266;28;33935;-72
2023/10/28 03:57:27;;;;;;;22.05;12.50;;;;;;;-146.25;100.00;52542.56;2105806;28;20091;-72
2023/10/28 03:58:31;;;;;;;25.98;13.25;;;;;;;-146.25;100.00;52542.56;2104929;28;31773;-72
2023/10/28 03:59:38;;;;;;;24.10;13.02;;;;;;;-146.25;100.00;52562.84;2104782;28;32299;-73
2023/10/28 04:00:40;;;;;;;26.48;13.43;;;;;;;-146.25;100.00;52532.44;2105641;28;34143;-72
2023/10/28 04:01:42;;;;;;;30.50;13.27;;;;;;;-146.25;100.00;52548.66;2105160;28;37622;-72
2023/10/28 04:02:44;;;;;;;29.67;13.80;;;;;;;-146.25;100.00;52497.97;2104734;28;34275;-73
2023/10/28 04:03:46;;;;;;;25.73;13.45;;;;;;;-146.25;100.00;52556.75;2105154;28;35041;-72
2023/10/28 04:04:47;;;;;;;27.02;13.23;;;;;;;-146.25;100.00;52556.75;2104737;28;34416;-73
2023/10/28 04:05:50;;;;;;;28.05;13.88;;;;;;;-146.25;100.00;52575.00;2105944;28;20045;-72
2023/10/28 04:06:55;;;;;;;29.38;14.20;;;;;;;-146.25;100.00;52546.63;2104870;28;36889;-72
2023/10/28 04:07:56;;;;;;;27.48;14.10;;;;;;;-146.25;100.00;52558.78;2104974;28;35624;-71
2023/10/28 04:08:59;;;;;;;27.23;13.90;;;;;;;-146.25;100.00;52577.03;2104135;28;34989;-72
2023/10/28 04:10:07;;;;;;;26.23;13.10;;;;;;;-146.25;100.00;52554.75;2104761;28;36415;-72
2023/10/28 04:11:10;;;;;;;29.10;13.02;;;;;;;-146.25;100.00;52542.56;2104429;28;34004;-74
2023/10/28 04:12:12;;;;;;;29.88;14.27;;;;;;;-146.25;100.00;52550.69;2105385;28;35767;-73
2023/10/28 04:13:14;;;;;;;37.53;14.23;;;;;;;-146.25;100.00;52564.88;2104715;28;32977;-72
2023/10/28 04:14:16;;;;;;;30.88;14.60;;;;;;;-146.25;100.00;52552.72;2105079;28;35745;-73
2023/10/28 04:15:18;;;;;;;31.13;13.48;;;;;;;-146.25;100.00;52562.84;2104653;28;32056;-74
2023/10/28 04:16:21;;;;;;;29.75;13.80;;;;;;;-146.25;100.00;52554.75;2105334;28;30905;-73
2023/10/28 04:17:24;;;;;;;33.83;14.32;;;;;;;-146.25;100.00;52611.50;2105323;28;20968;-72
2023/10/28 04:18:26;;;;;;;32.00;14.13;;;;;;;-146.25;100.00;52534.47;2104948;28;39287;-71
2023/10/28 04:19:29;;;;;;;28.98;13.40;;;;;;;-146.25;100.00;52607.47;2104513;28;31038;-70
2023/10/28 04:20:31;;;;;;;29.15;13.50;;;;;;;-146.25;100.00;52532.44;2105136;28;31833;-71
2023/10/28 04:21:33;;;;;;;32.97;14.90;;;;;;;-146.25;100.00;52585.16;2104748;28;33275;-72
2023/10/28 04:22:35;;;;;;;28.60;13.95;;;;;;;-146.25;100.00;52575.00;2105918;28;20048;-72
2023/10/28 04:23:39;;;;;;;29.77;13.88;;;;;;;-146.25;100.00;52573.00;2104741;28;36502;-72
2023/10/28 04:24:41;;;;;;;30.77;14.70;;;;;;;-146.25;100.00;52528.38;2105152;28;33208;-73
2023/10/28 04:25:44;;;;;;;29.27;13.63;;;;;;;-146.25;100.00;52570.97;2105364;28;20465;-73
2023/10/28 04:26:46;;;;;;;30.95;14.23;;;;;;;-146.25;100.00;52546.63;2105489;28;37072;-74
2023/10/28 04:27:50;;;;;;;33.33;15.25;;;;;;;-146.25;100.00;52577.03;2103863;28;35538;-71
2023/10/28 04:28:54;;;;;;;33.08;14.70;;;;;;;-146.25;100.00;52522.28;2105011;28;20114;-72
2023/10/28 04:29:56;;;;;;;31.35;14.63;;;;;;;-146.25;100.00;52591.25;2103676;28;40258;-74
2023/10/28 04:30:59;;;;;;;34.03;14.65;;;;;;;-146.25;100.00;52581.09;2104194;28;36746;-71
2023/10/28 04:32:00;;;;;;;33.53;14.40;;;;;;;-146.25;100.00;52579.06;2105620;28;20033;-71
2023/10/28 04:33:05;;;;;;;34.40;15.13;;;;;;;-146.25;100.00;52568.94;2104890;28;37107;-72
2023/10/28 04:34:07;;;;;;;32.28;14.63;;;;;;;-146.25;100.00;52583.13;2104599;28;35895;-72
2023/10/28 04:35:10;;;;;;;31.55;15.02;;;;;;;-146.25;100.00;52542.56;2104594;28;38025;-73
2023/10/28 04:36:27;;;;;;;29.17;14.13;;;;;;;-146.25;100.00;52530.41;2104611;28;36913;-73
2023/10/28 04:37:32;;;;;;;37.95;15.13;;;;;;;-146.25;100.00;52609.50;2104567;28;20036;-74
2023/10/28 04:38:36;;;;;;;31.40;14.13;;;;;;;-146.25;100.00;52552.72;2103564;28;38157;-74
2023/10/28 04:39:40;;;;;;;30.02;14.40;;;;;;;-146.25;100.00;52558.78;2104562;28;33824;-73